Time;durP1;ratioP1;P1;durP2;ratioP2;P2;SDS_P1;SDS_P2;PMS_P1;PMS_P2;Temp;Humidity;BMP_temperature;BMP_pressure;BME280_temperature;BME280_humidity;BME280_pressure;Samples;Min_cycle;Max_cycle;Signal;HPM_P1;HPM_P2
2023/08/25 00:02:48;;;;;;;;;;;;;;;31.81;43.00;100518.66;6108476;23;20257;-87
2023/08/25 00:05:40;;;;;;;;;;;;;;;31.78;42.76;100527.25;6129707;23;19913;-88
2023/08/25 00:08:32;;;;;;;;;;;;;;;31.73;42.89;100522.25;6129512;23;19913;-88
2023/08/25 00:11:24;;;;;;;;;;;;;;;31.67;43.11;100521.28;6129071;23;19913;-88
2023/08/25 00:14:16;;;;;;;;;;;;;;;31.63;43.05;100526.28;6108035;23;19917;-87
2023/08/25 00:17:08;;;;;;;;;;;;;;;31.61;43.01;100517.50;6108011;23;20249;-88
2023/08/25 00:20:00;;;;;;;;;;;;;;;31.60;43.09;100518.75;6107384;23;19913;-88
2023/08/25 00:22:52;;;;;;;;;;;;;;;31.61;42.87;100520.31;6128170;23;20333;-88
2023/08/25 00:25:44;;;;;;;;;;;;;;;31.61;42.75;100517.50;6107172;23;19913;-88
2023/08/25 00:28:36;;;;;;;;;;;;;;;31.57;42.78;100514.06;6128612;23;19917;-88
2023/08/25 00:31:28;;;;;;;;;;;;;;;31.52;43.04;100520.28;6127450;23;20333;-88
2023/08/25 00:34:18;;;;;;;;;;;;;;;31.46;43.21;100522.91;6127395;23;20253;-87
2023/08/25 00:37:10;;;;;;;;;;;;;;;31.44;42.97;100523.38;6128033;23;19913;-88
2023/08/25 00:40:00;;;;;;;;;;;;;;;31.41;43.22;100524.31;6127822;23;19917;-87
2023/08/25 00:42:51;;;;;;;;;;;;;;;31.41;43.19;100527.13;6106509;23;19913;-88
2023/08/25 00:45:41;;;;;;;;;;;;;;;31.39;43.36;100518.34;6107134;23;20349;-87
2023/08/25 00:48:33;;;;;;;;;;;;;;;31.34;43.39;100518.94;6127623;23;19914;-88
2023/08/25 00:51:26;;;;;;;;;;;;;;;31.26;43.79;100519.72;6127530;23;19913;-88
2023/08/25 00:54:15;;;;;;;;;;;;;;;31.23;43.73;100510.19;6107033;23;19913;-87
2023/08/25 00:57:08;;;;;;;;;;;;;;;31.23;43.66;100515.03;6106385;23;19917;-87
2023/08/25 01:00:01;;;;;;;;;;;;;;;31.21;43.69;100521.09;6126819;23;20333;-87
2023/08/25 01:02:53;;;;;;;;;;;;;;;31.20;43.60;100516.72;6127060;23;19913;-87
2023/08/25 01:05:40;;;;;;;;;;;;;;;31.16;43.78;100513.28;6086390;23;19913;-87
2023/08/25 01:08:32;;;;;;;;;;;;;;;31.14;43.85;100504.50;6085588;23;19913;-88
2023/08/25 01:11:25;;;;;;;;;;;;;;;31.12;43.80;100512.63;6105633;23;20569;-87
2023/08/25 01:14:16;;;;;;;;;;;;;;;31.11;43.81;100513.88;6156696;23;20333;-88
2023/08/25 01:17:18;;;;;;;;;;;;;;;31.09;43.94;100507.91;6137189;23;20333;-87
2023/08/25 01:20:10;;;;;;;;;;;;;;;31.07;44.00;100504.81;6135526;23;19917;-88
2023/08/25 01:23:21;;;;;;;;;;;;;;;31.06;43.97;100506.03;6135586;23;19912;-88
2023/08/25 01:26:11;;;;;;;;;;;;;;;31.05;43.84;100498.84;6135783;23;20249;-88
2023/08/25 01:29:04;;;;;;;;;;;;;;;31.03;43.97;100506.19;6136121;23;19916;-87
2023/08/25 01:31:55;;;;;;;;;;;;;;;31.06;43.88;100505.25;6134959;23;19913;-88
2023/08/25 01:34:46;;;;;;;;;;;;;;;31.01;44.12;100503.81;6135060;23;19913;-87
2023/08/25 01:37:41;;;;;;;;;;;;;;;30.99;44.15;100498.63;6135344;23;19912;-87
2023/08/25 01:40:35;;;;;;;;;;;;;;;30.98;43.91;100499.13;6136017;23;19913;-87
2023/08/25 01:43:31;;;;;;;;;;;;;;;30.94;44.13;100502.03;6135185;23;19913;-87
2023/08/25 01:46:22;;;;;;;;;;;;;;;30.91;44.26;100505.00;6137610;23;19913;-87
2023/08/25 01:49:15;;;;;;;;;;;;;;;30.84;44.27;100505.25;6137125;23;19913;-87
2023/08/25 01:52:07;;;;;;;;;;;;;;;30.78;44.46;100491.03;6137161;23;19913;-87
2023/08/25 01:54:59;;;;;;;;;;;;;;;30.76;44.37;100493.53;6136907;23;19917;-87
2023/08/25 01:57:51;;;;;;;;;;;;;;;30.76;44.28;100492.75;6137421;23;19912;-87
2023/08/25 02:00:40;;;;;;;;;;;;;;;30.76;44.33;100493.53;6136761;23;19912;-87
2023/08/25 02:03:30;;;;;;;;;;;;;;;30.75;44.42;100488.38;6131626;23;19913;-87
2023/08/25 02:06:22;;;;;;;;;;;;;;;30.72;44.32;100492.09;6136741;23;19912;-87
2023/08/25 02:09:14;;;;;;;;;;;;;;;30.71;44.37;100480.09;6137171;23;19913;-87
2023/08/25 02:12:06;;;;;;;;;;;;;;;30.69;44.63;100471.31;6136984;23;20320;-87
2023/08/25 02:14:55;;;;;;;;;;;;;;;30.68;44.55;100469.00;6137068;23;19921;-87
2023/08/25 02:17:47;;;;;;;;;;;;;;;30.66;44.56;100474.28;6136851;23;20261;-87
2023/08/25 02:20:39;;;;;;;;;;;;;;;30.66;44.53;100469.44;6137173;23;19913;-87
2023/08/25 02:23:31;;;;;;;;;;;;;;;30.62;44.84;100471.63;6115945;23;19913;-87
2023/08/25 02:26:23;;;;;;;;;;;;;;;30.61;44.59;100470.03;6136892;23;20328;-87
2023/08/25 02:29:17;;;;;;;;;;;;;;;30.57;44.73;100470.19;6136859;23;20340;-87
2023/08/25 02:32:09;;;;;;;;;;;;;;;30.57;44.79;100460.97;6134695;23;20252;-87
2023/08/25 02:35:01;;;;;;;;;;;;;;;30.54;44.66;100459.06;6115340;23;19913;-87
2023/08/25 02:38:02;;;;;;;;;;;;;;;30.52;44.78;100465.16;6136862;23;19913;-87
2023/08/25 02:40:52;;;;;;;;;;;;;;;30.51;44.85;100460.78;6136428;23;19913;-87
2023/08/25 02:43:44;;;;;;;;;;;;;;;30.50;44.98;100456.41;6136367;23;19913;-87
2023/08/25 02:46:36;;;;;;;;;;;;;;;30.50;44.92;100453.59;6136542;23;20482;-87
2023/08/25 02:49:28;;;;;;;;;;;;;;;30.47;44.97;100448.91;6136760;23;19913;-87
2023/08/25 02:52:17;;;;;;;;;;;;;;;30.46;45.00;100464.19;6136348;23;19913;-87
2023/08/25 02:55:07;;;;;;;;;;;;;;;30.47;44.88;100451.72;6136038;23;19917;-87
2023/08/25 02:57:58;;;;;;;;;;;;;;;30.50;44.54;100455.63;6135529;23;19913;-87
2023/08/25 03:00:50;;;;;;;;;;;;;;;30.52;44.30;100451.13;6136337;23;19912;-87
2023/08/25 03:03:45;;;;;;;;;;;;;;;30.55;44.38;100455.03;6136101;23;19913;-87
2023/08/25 03:06:35;;;;;;;;;;;;;;;30.54;44.23;100451.44;6136218;23;20333;-87
2023/08/25 03:09:28;;;;;;;;;;;;;;;30.53;44.36;100449.88;6136024;23;19917;-87
2023/08/25 03:12:20;;;;;;;;;;;;;;;30.48;44.80;100449.66;6133745;23;20325;-87
2023/08/25 03:15:11;;;;;;;;;;;;;;;30.46;44.90;100450.16;6135813;23;19917;-87
2023/08/25 03:18:04;;;;;;;;;;;;;;;30.47;44.56;100453.75;6135931;23;19913;-87
2023/08/25 03:20:56;;;;;;;;;;;;;;;30.47;44.41;100454.53;6136072;23;19913;-87
2023/08/25 03:23:47;;;;;;;;;;;;;;;30.51;44.14;100448.78;6136505;23;20349;-87
2023/08/25 03:26:39;;;;;;;;;;;;;;;30.49;44.22;100448.44;6136534;23;19912;-86
2023/08/25 03:29:31;;;;;;;;;;;;;;;30.48;44.88;100456.06;6135763;23;19913;-87
2023/08/25 03:32:23;;;;;;;;;;;;;;;30.58;44.93;100454.09;6135806;23;19913;-87
2023/08/25 03:35:15;;;;;;;;;;;;;;;30.51;44.86;100449.56;6136160;23;20252;-87
2023/08/25 03:38:08;;;;;;;;;;;;;;;30.51;45.21;100455.16;6135939;23;20354;-87
2023/08/25 03:41:02;;;;;;;;;;;;;;;30.48;44.92;100458.88;6136390;23;19912;-87
2023/08/25 03:43:53;;;;;;;;;;;;;;;30.43;44.41;100458.66;6135511;23;20253;-87
2023/08/25 03:46:45;;;;;;;;;;;;;;;30.34;44.74;100456.56;6115295;23;19913;-87
2023/08/25 03:49:37;;;;;;;;;;;;;;;30.31;44.92;100457.50;6135356;23;19917;-87
2023/08/25 03:52:31;;;;;;;;;;;;;;;30.26;44.95;100465.72;6136431;23;19913;-87
2023/08/25 03:55:23;;;;;;;;;;;;;;;30.17;45.70;100452.41;6135301;23;19917;-87
2023/08/25 03:58:17;;;;;;;;;;;;;;;30.17;45.86;100453.16;6135310;23;19912;-87
2023/08/25 04:01:09;;;;;;;;;;;;;;;30.17;45.99;100466.44;6136710;23;19913;-87
2023/08/25 04:04:02;;;;;;;;;;;;;;;30.11;46.41;100457.81;6135718;23;19913;-87
2023/08/25 04:06:52;;;;;;;;;;;;;;;30.08;46.49;100463.53;6135323;23;19913;-87
2023/08/25 04:09:44;;;;;;;;;;;;;;;29.86;46.44;100465.50;6135580;23;19913;-81
2023/08/25 04:12:38;;;;;;;;;;;;;;;27.71;51.81;100460.31;6133361;23;19917;-81
2023/08/25 04:15:30;;;;;;;;;;;;;;;27.64;52.84;100466.88;6133883;23;20264;-82
2023/08/25 04:18:22;;;;;;;;;;;;;;;27.61;53.47;100466.97;6113480;23;19913;-82
2023/08/25 04:21:14;;;;;;;;;;;;;;;27.53;53.92;100465.59;6134198;23;20512;-82
2023/08/25 04:24:06;;;;;;;;;;;;;;;27.31;54.42;100458.91;6132681;23;19917;-82
2023/08/25 04:26:59;;;;;;;;;;;;;;;27.45;54.75;100464.16;6134492;23;19913;-84
2023/08/25 04:29:51;;;;;;;;;;;;;;;27.34;54.91;100466.41;6134530;23;19912;-84
2023/08/25 04:32:45;;;;;;;;;;;;;;;27.48;54.24;100466.84;6124300;23;20438;-84
2023/08/25 04:35:34;;;;;;;;;;;;;;;27.49;54.71;100473.22;6134937;23;19917;-84
2023/08/25 04:38:26;;;;;;;;;;;;;;;27.46;54.89;100472.09;6135267;23;19913;-85
2023/08/25 04:41:19;;;;;;;;;;;;;;;27.32;54.55;100480.03;6137673;23;19916;-88
2023/08/25 04:44:11;;;;;;;;;;;;;;;27.53;54.50;100477.53;6125473;23;20337;-83
2023/08/25 04:47:02;;;;;;;;;;;;;;;27.56;54.01;100478.66;6134879;23;19913;-85
2023/08/25 04:49:49;;;;;;;;;;;;;;;27.41;55.68;100474.63;6133199;23;19917;-83
2023/08/25 04:52:42;;;;;;;;;;;;;;;27.53;55.02;100477.53;6134194;23;20092;-84
2023/08/25 04:55:34;;;;;;;;;;;;;;;27.52;54.92;100477.97;6154264;23;19916;-85
2023/08/25 04:58:24;;;;;;;;;;;;;;;27.55;54.72;100482.69;6134908;23;19917;-86
2023/08/25 05:01:16;;;;;;;;;;;;;;;27.59;54.66;100483.38;6135829;23;19917;-85
2023/08/25 05:04:08;;;;;;;;;;;;;;;27.70;54.95;100478.31;6134014;23;19917;-85
2023/08/25 05:06:55;;;;;;;;;;;;;;;27.62;55.32;100485.31;6114297;23;19913;-86
2023/08/25 05:09:48;;;;;;;;;;;;;;;27.68;55.18;100485.56;6134659;23;19917;-87
2023/08/25 05:12:39;;;;;;;;;;;;;;;27.75;54.82;100480.56;6127978;23;20249;-88
2023/08/25 05:15:31;;;;;;;;;;;;;;;27.84;54.76;100493.91;6133621;23;19921;-84
2023/08/25 05:18:24;;;;;;;;;;;;;;;27.93;54.51;100480.13;6133674;23;19912;-85
2023/08/25 05:21:14;;;;;;;;;;;;;;;28.01;54.16;100487.88;6134150;23;19913;-87
2023/08/25 05:24:24;;;;;;;;;;;;;;;28.09;54.07;100491.25;6135524;23;19912;-86
2023/08/25 05:27:11;;;;;;;;;;;;;;;28.16;53.54;100491.09;6114551;23;20332;-86
2023/08/25 05:30:02;;;;;;;;;;;;;;;28.22;53.34;100491.34;6134313;23;20258;-86
2023/08/25 05:32:55;;;;;;;;;;;;;;;28.29;52.96;100502.34;6134049;23;19912;-84
2023/08/25 05:36:17;;;;;;;;;;;;;;;28.36;53.06;100510.53;6135415;23;20337;-85
2023/08/25 05:39:07;;;;;;;;;;;;;;;28.40;53.49;100509.22;6133283;23;19913;-83
2023/08/25 05:41:59;;;;;;;;;;;;;;;28.47;53.17;100513.81;6133286;23;19913;-83
2023/08/25 05:44:51;;;;;;;;;;;;;;;28.49;53.03;100528.97;6133713;23;19914;-84
2023/08/25 05:47:43;;;;;;;;;;;;;;;28.56;53.14;100516.75;6133925;23;20253;-83
2023/08/25 05:50:35;;;;;;;;;;;;;;;28.61;52.86;100521.81;6133162;23;20248;-84
2023/08/25 05:53:27;;;;;;;;;;;;;;;28.65;52.89;100518.94;6133620;23;19916;-84
2023/08/25 05:56:17;;;;;;;;;;;;;;;28.69;52.58;100525.22;6133785;23;19916;-84
2023/08/25 05:59:09;;;;;;;;;;;;;;;28.72;52.56;100525.13;6133393;23;19913;-83
2023/08/25 06:02:01;;;;;;;;;;;;;;;28.77;52.39;100530.19;6133955;23;19913;-83
2023/08/25 06:04:51;;;;;;;;;;;;;;;28.80;52.13;100526.47;6133454;23;19916;-84
2023/08/25 06:07:43;;;;;;;;;;;;;;;28.85;52.18;100531.53;6134016;23;19913;-83
2023/08/25 06:10:35;;;;;;;;;;;;;;;28.89;52.06;100535.03;6154154;23;19913;-84
2023/08/25 06:13:27;;;;;;;;;;;;;;;28.92;51.86;100531.31;6133863;23;19912;-84
2023/08/25 06:16:19;;;;;;;;;;;;;;;29.02;51.34;100531.44;6135087;23;19921;-85
2023/08/25 06:19:06;;;;;;;;;;;;;;;29.08;51.20;100535.28;6133729;23;19947;-84
2023/08/25 06:21:57;;;;;;;;;;;;;;;29.12;51.02;100535.94;6154047;23;19913;-87
2023/08/25 06:24:49;;;;;;;;;;;;;;;29.21;50.91;100530.44;6135514;23;20337;-87
2023/08/25 06:27:39;;;;;;;;;;;;;;;29.27;50.43;100531.47;6134983;23;20418;-87
2023/08/25 06:30:39;;;;;;;;;;;;;;;29.32;51.00;100539.34;6133875;23;19913;-87
2023/08/25 06:33:31;;;;;;;;;;;;;;;29.39;51.05;100536.34;6136199;23;19913;-87
2023/08/25 06:36:20;;;;;;;;;;;;;;;29.42;50.98;100535.44;6135946;23;19916;-87
2023/08/25 06:39:13;;;;;;;;;;;;;;;29.54;50.98;100539.47;6135910;23;19913;-87
2023/08/25 06:42:05;;;;;;;;;;;;;;;29.56;50.77;100539.81;6134555;23;19912;-85
2023/08/25 06:44:57;;;;;;;;;;;;;;;29.63;51.01;100543.16;6136715;23;19913;-85
2023/08/25 06:47:49;;;;;;;;;;;;;;;29.69;50.61;100546.97;6136208;23;19917;-85
2023/08/25 06:50:41;;;;;;;;;;;;;;;29.75;50.46;100547.97;6135363;23;20281;-84
2023/08/25 06:53:31;;;;;;;;;;;;;;;29.81;50.33;100541.78;6129908;23;20249;-86
2023/08/25 06:56:21;;;;;;;;;;;;;;;29.85;50.18;100553.66;6135781;23;19917;-86
2023/08/25 06:59:13;;;;;;;;;;;;;;;29.90;50.27;100555.94;6135516;23;19913;-86
2023/08/25 07:02:03;;;;;;;;;;;;;;;29.97;50.13;100552.91;6136689;23;19913;-86
2023/08/25 07:04:51;;;;;;;;;;;;;;;30.05;50.30;100554.22;6135844;23;20329;-87
2023/08/25 07:07:42;;;;;;;;;;;;;;;30.13;49.66;100558.34;6135685;23;20341;-86
2023/08/25 07:10:29;;;;;;;;;;;;;;;30.20;49.60;100569.31;6135757;23;19913;-85
2023/08/25 07:13:21;;;;;;;;;;;;;;;30.23;49.41;100574.00;6130795;23;20445;-85
2023/08/25 07:16:13;;;;;;;;;;;;;;;30.29;49.21;100566.59;6135729;23;19917;-85
2023/08/25 07:19:02;;;;;;;;;;;;;;;30.33;49.41;100584.09;6136044;23;19913;-84
2023/08/25 07:21:52;;;;;;;;;;;;;;;30.38;49.76;100577.91;6156421;23;19913;-85
2023/08/25 07:24:41;;;;;;;;;;;;;;;30.44;49.39;100573.28;6135682;23;19912;-85
2023/08/25 07:27:33;;;;;;;;;;;;;;;30.51;49.14;100572.28;6136860;23;19916;-85
2023/08/25 07:30:25;;;;;;;;;;;;;;;30.57;48.93;100576.06;6136209;23;19913;-84
2023/08/25 07:33:12;;;;;;;;;;;;;;;30.64;48.47;100575.00;6129927;23;20333;-85
2023/08/25 07:36:02;;;;;;;;;;;;;;;30.69;48.26;100566.78;6135560;23;19917;-84
2023/08/25 07:38:54;;;;;;;;;;;;;;;30.75;48.18;100564.97;6135280;23;19913;-85
2023/08/25 07:41:46;;;;;;;;;;;;;;;30.81;47.83;100565.16;6136642;23;19912;-85
2023/08/25 07:44:38;;;;;;;;;;;;;;;30.92;47.42;100571.16;6135533;23;19913;-85
2023/08/25 07:47:50;;;;;;;;;;;;;;;31.01;47.37;100576.84;6135655;23;19913;-84
2023/08/25 07:50:42;;;;;;;;;;;;;;;31.05;47.73;100577.50;6135370;23;20252;-85
2023/08/25 07:53:31;;;;;;;;;;;;;;;31.10;47.77;100574.13;6114923;23;19913;-85
2023/08/25 07:56:23;;;;;;;;;;;;;;;31.18;47.20;100567.00;6136225;23;20248;-86
2023/08/25 07:59:15;;;;;;;;;;;;;;;31.26;46.75;100571.06;6135179;23;19913;-85
2023/08/25 08:02:08;;;;;;;;;;;;;;;31.33;46.41;100573.63;6135721;23;19913;-86
2023/08/25 08:04:55;;;;;;;;;;;;;;;31.38;46.88;100567.41;6135355;23;19913;-85
2023/08/25 08:07:47;;;;;;;;;;;;;;;31.49;46.26;100566.19;6134683;23;19913;-85
2023/08/25 08:10:37;;;;;;;;;;;;;;;31.60;46.18;100563.75;6114636;23;20337;-86
2023/08/25 08:13:29;;;;;;;;;;;;;;;31.63;46.05;100566.44;6148407;23;20326;-86
2023/08/25 08:16:22;;;;;;;;;;;;;;;31.73;46.03;100567.25;6135111;23;19916;-86
2023/08/25 08:19:14;;;;;;;;;;;;;;;31.77;46.00;100565.84;6134839;23;19912;-90
2023/08/25 08:22:03;;;;;;;;;;;;;;;31.83;45.54;100568.84;6135284;23;19913;-86
2023/08/25 08:24:53;;;;;;;;;;;;;;;31.92;45.53;100568.84;6134865;23;19913;-84
2023/08/25 08:27:46;;;;;;;;;;;;;;;32.01;45.33;100568.84;6136231;23;19913;-84
2023/08/25 08:30:33;;;;;;;;;;;;;;;32.12;44.56;100568.44;6135108;23;19912;-84
2023/08/25 08:33:24;;;;;;;;;;;;;;;32.17;44.67;100565.78;6129828;23;19912;-85
2023/08/25 08:36:17;;;;;;;;;;;;;;;32.24;43.94;100570.34;6135007;23;19924;-85
2023/08/25 08:39:04;;;;;;;;;;;;;;;32.42;42.83;100572.38;6134874;23;20357;-84
2023/08/25 08:41:54;;;;;;;;;;;;;;;32.49;43.38;100566.44;6135389;23;19913;-85
2023/08/25 08:44:47;;;;;;;;;;;;;;;32.48;42.70;100564.88;6134797;23;19913;-85
2023/08/25 08:47:40;;;;;;;;;;;;;;;32.58;41.92;100557.97;6135065;23;19917;-86
2023/08/25 08:50:29;;;;;;;;;;;;;;;32.68;41.98;100554.72;6136019;23;19913;-85
2023/08/25 08:53:22;;;;;;;;;;;;;;;32.73;41.84;100550.47;6129952;23;20325;-85
2023/08/25 08:56:11;;;;;;;;;;;;;;;32.79;41.79;100550.63;6134628;23;19917;-86
2023/08/25 08:59:01;;;;;;;;;;;;;;;32.80;42.40;100547.34;6134591;23;19913;-86
2023/08/25 09:01:53;;;;;;;;;;;;;;;32.87;42.33;100543.41;6134927;23;20245;-85
2023/08/25 09:04:46;;;;;;;;;;;;;;;32.91;41.94;100550.47;6134857;23;20253;-85
2023/08/25 09:07:36;;;;;;;;;;;;;;;33.19;41.08;100556.03;6134869;23;19913;-86
2023/08/25 09:10:30;;;;;;;;;;;;;;;33.20;40.96;100541.47;6134752;23;19912;-86
2023/08/25 09:13:23;;;;;;;;;;;;;;;33.31;41.43;100538.13;6129526;23;19913;-86
2023/08/25 09:16:16;;;;;;;;;;;;;;;33.41;40.67;100531.97;6135776;23;19917;-85
2023/08/25 09:19:06;;;;;;;;;;;;;;;33.40;40.56;100536.06;6134844;23;19913;-85
2023/08/25 09:21:58;;;;;;;;;;;;;;;33.43;40.71;100537.13;6134708;23;19913;-85
2023/08/25 09:24:46;;;;;;;;;;;;;;;33.61;39.47;100534.22;6134780;23;19913;-87
2023/08/25 09:27:38;;;;;;;;;;;;;;;33.65;39.09;100532.00;6135654;23;19913;-85
2023/08/25 09:30:45;;;;;;;;;;;;;;;33.65;39.87;100526.38;6134698;23;19913;-85
2023/08/25 09:33:37;;;;;;;;;;;;;;;33.83;39.02;100534.75;6133682;23;19916;-86
2023/08/25 09:36:29;;;;;;;;;;;;;;;33.86;39.31;100533.00;6114443;23;20373;-84
2023/08/25 09:39:20;;;;;;;;;;;;;;;34.03;38.14;100522.09;6134511;23;19913;-84
2023/08/25 09:42:10;;;;;;;;;;;;;;;34.06;38.39;100524.72;6134697;23;19913;-84
2023/08/25 09:45:04;;;;;;;;;;;;;;;34.30;36.54;100517.00;6134587;23;19912;-84
2023/08/25 09:47:56;;;;;;;;;;;;;;;34.43;36.98;100513.94;6134699;23;19913;-84
2023/08/25 09:50:48;;;;;;;;;;;;;;;34.46;36.78;100512.94;6136461;23;19913;-85
2023/08/25 09:53:40;;;;;;;;;;;;;;;34.41;38.25;100510.81;6134970;23;19912;-85
2023/08/25 09:56:32;;;;;;;;;;;;;;;34.57;38.29;100507.50;6135368;23;19917;-85
2023/08/25 09:59:24;;;;;;;;;;;;;;;34.78;37.25;100511.25;6135115;23;20456;-85
2023/08/25 10:02:18;;;;;;;;;;;;;;;35.03;36.24;100507.81;6134201;23;19913;-85
2023/08/25 10:05:11;;;;;;;;;;;;;;;35.14;36.59;100505.19;6135640;23;19913;-85
2023/08/25 10:08:01;;;;;;;;;;;;;;;35.00;37.43;100510.88;6136163;23;19913;-85
2023/08/25 10:10:50;;;;;;;;;;;;;;;35.10;36.73;100503.84;6136380;23;19913;-85
2023/08/25 10:13:44;;;;;;;;;;;;;;;34.92;37.21;100504.03;6129935;23;19913;-85
2023/08/25 10:16:36;;;;;;;;;;;;;;;34.98;37.42;100513.38;6136628;23;19917;-85
2023/08/25 10:19:26;;;;;;;;;;;;;;;34.98;37.97;100505.69;6136802;23;19912;-85
2023/08/25 10:22:20;;;;;;;;;;;;;;;34.95;38.51;100503.03;6136501;23;19917;-86
2023/08/25 10:25:10;;;;;;;;;;;;;;;35.26;36.31;100497.66;6137309;23;20336;-85
2023/08/25 10:28:09;;;;;;;;;;;;;;;35.54;35.10;100500.91;6136154;23;20269;-85
2023/08/25 10:31:01;;;;;;;;;;;;;;;35.65;34.73;100503.13;6137476;23;19913;-86
2023/08/25 10:33:51;;;;;;;;;;;;;;;35.61;35.05;100494.81;6136523;23;19913;-84
2023/08/25 10:36:44;;;;;;;;;;;;;;;35.40;35.50;100496.88;6136765;23;19917;-85
2023/08/25 10:39:49;;;;;;;;;;;;;;;35.63;35.05;100495.13;6136190;23;19913;-86
2023/08/25 10:42:43;;;;;;;;;;;;;;;35.50;35.68;100491.84;6133767;23;19916;-84
2023/08/25 10:45:36;;;;;;;;;;;;;;;35.66;35.07;100499.03;6136021;23;19913;-84
2023/08/25 10:48:29;;;;;;;;;;;;;;;35.60;34.50;100494.06;6135779;23;20329;-86
2023/08/25 10:51:22;;;;;;;;;;;;;;;35.55;34.31;100485.50;6135861;23;19913;-84
2023/08/25 10:54:20;;;;;;;;;;;;;;;35.67;33.52;100475.91;6136155;23;19912;-86
2023/08/25 10:57:25;;;;;;;;;;;;;;;35.82;34.12;100473.78;6136517;23;19917;-88
2023/08/25 11:00:30;;;;;;;;;;;;;;;35.78;34.41;100472.44;6136481;23;20256;-86
2023/08/25 11:03:40;;;;;;;;;;;;;;;35.77;34.30;100465.22;6136066;23;19917;-84
2023/08/25 11:06:42;;;;;;;;;;;;;;;36.03;32.59;100463.22;6136412;23;19913;-84
2023/08/25 11:09:32;;;;;;;;;;;;;;;36.17;31.90;100458.75;6136107;23;19913;-83
2023/08/25 11:12:27;;;;;;;;;;;;;;;36.19;32.94;100456.22;6135597;23;19913;-86
2023/08/25 11:15:19;;;;;;;;;;;;;;;36.04;33.73;100450.63;6137515;23;19917;-84
2023/08/25 11:18:11;;;;;;;;;;;;;;;36.29;32.62;100449.13;6136601;23;19917;-84
2023/08/25 11:21:03;;;;;;;;;;;;;;;36.40;32.68;100454.91;6136292;23;19913;-84
2023/08/25 11:23:55;;;;;;;;;;;;;;;36.40;32.03;100461.34;6129282;23;19913;-84
2023/08/25 11:26:47;;;;;;;;;;;;;;;36.56;31.54;100445.78;6136470;23;20337;-84
2023/08/25 11:29:39;;;;;;;;;;;;;;;36.45;32.35;100442.84;6136074;23;19916;-84
2023/08/25 11:32:31;;;;;;;;;;;;;;;36.64;30.81;100443.28;6136312;23;20122;-83
2023/08/25 11:35:23;;;;;;;;;;;;;;;36.59;31.46;100441.94;6136381;23;19913;-84
2023/08/25 11:38:13;;;;;;;;;;;;;;;36.70;30.46;100439.22;6135996;23;19917;-84
2023/08/25 11:41:11;;;;;;;;;;;;;;;36.58;30.58;100434.69;6136449;23;20337;-84
2023/08/25 11:44:03;;;;;;;;;;;;;;;36.54;29.94;100444.72;6136460;23;19912;-84
2023/08/25 11:46:56;;;;;;;;;;;;;;;36.69;30.02;100440.50;6136392;23;19913;-83
2023/08/25 11:49:48;;;;;;;;;;;;;;;36.82;29.92;100440.09;6136706;23;19916;-84
2023/08/25 11:52:40;;;;;;;;;;;;;;;36.80;29.90;100442.66;6133718;23;19913;-84
2023/08/25 11:55:59;;;;;;;;;;;;;;;36.95;29.32;100431.94;6136583;23;19913;-84
2023/08/25 11:58:51;;;;;;;;;;;;;;;37.02;29.91;100439.22;6136724;23;19917;-83
2023/08/25 12:01:43;;;;;;;;;;;;;;;37.00;28.65;100431.19;6137886;23;19921;-83
2023/08/25 12:04:32;;;;;;;;;;;;;;;37.02;30.09;100431.47;6136833;23;19913;-84
2023/08/25 12:07:21;;;;;;;;;;;;;;;36.95;29.97;100428.31;6136804;23;19912;-83
2023/08/25 12:10:13;;;;;;;;;;;;;;;37.12;29.27;100432.09;6137323;23;19913;-83
2023/08/25 12:13:05;;;;;;;;;;;;;;;37.00;30.69;100431.19;6131900;23;19912;-82
2023/08/25 12:15:57;;;;;;;;;;;;;;;36.93;29.48;100423.16;6138530;23;19912;-83
2023/08/25 12:18:51;;;;;;;;;;;;;;;37.24;29.17;100420.28;6137107;23;19916;-82
2023/08/25 12:21:43;;;;;;;;;;;;;;;37.36;28.45;100414.69;6136618;23;19913;-83
2023/08/25 12:24:35;;;;;;;;;;;;;;;37.47;28.83;100411.91;6137375;23;19913;-83
2023/08/25 12:27:22;;;;;;;;;;;;;;;37.39;28.29;100403.06;6136303;23;19913;-85
2023/08/25 12:30:14;;;;;;;;;;;;;;;37.24;29.68;100396.81;6156108;23;19913;-84
2023/08/25 12:33:05;;;;;;;;;;;;;;;37.19;29.34;100392.66;6135580;23;19913;-83
2023/08/25 12:35:57;;;;;;;;;;;;;;;37.19;28.99;100392.66;6136938;23;20337;-84
2023/08/25 12:38:49;;;;;;;;;;;;;;;37.28;27.76;100390.91;6135604;23;19925;-85
2023/08/25 12:41:41;;;;;;;;;;;;;;;37.28;28.93;100379.56;6136095;23;19913;-84
2023/08/25 12:44:33;;;;;;;;;;;;;;;37.26;28.62;100378.00;6135686;23;19913;-87
2023/08/25 12:47:25;;;;;;;;;;;;;;;37.36;27.57;100380.63;6136354;23;19913;-84
2023/08/25 12:50:14;;;;;;;;;;;;;;;37.46;26.45;100373.44;6135338;23;19916;-82
2023/08/25 12:53:05;;;;;;;;;;;;;;;37.57;26.73;100373.53;6131856;23;19913;-82
2023/08/25 12:55:55;;;;;;;;;;;;;;;37.64;27.11;100376.63;6136065;23;19912;-85
2023/08/25 12:58:47;;;;;;;;;;;;;;;37.62;26.76;100367.88;6135348;23;19917;-84
2023/08/25 13:01:36;;;;;;;;;;;;;;;37.62;27.08;100376.38;6135732;23;20333;-84
2023/08/25 13:04:26;;;;;;;;;;;;;;;37.60;27.68;100361.91;6135887;23;19912;-83
2023/08/25 13:07:15;;;;;;;;;;;;;;;37.67;26.98;100360.66;6135827;23;19913;-83
2023/08/25 13:10:08;;;;;;;;;;;;;;;37.70;26.70;100362.47;6135672;23;19913;-83
2023/08/25 13:13:00;;;;;;;;;;;;;;;37.89;25.83;100355.03;6115356;23;20353;-83
2023/08/25 13:15:50;;;;;;;;;;;;;;;37.95;25.47;100355.81;6136153;23;19917;-83
2023/08/25 13:18:42;;;;;;;;;;;;;;;37.87;25.80;100351.94;6135712;23;19917;-83
2023/08/25 13:21:34;;;;;;;;;;;;;;;37.80;26.04;100345.97;6135845;23;19913;-84
2023/08/25 13:24:26;;;;;;;;;;;;;;;37.91;27.22;100335.41;6135713;23;19913;-84
2023/08/25 13:27:15;;;;;;;;;;;;;;;37.76;27.74;100348.28;6135677;23;19917;-83
2023/08/25 13:30:06;;;;;;;;;;;;;;;37.78;27.05;100343.66;6136921;23;20277;-83
2023/08/25 13:32:58;;;;;;;;;;;;;;;37.89;27.00;100340.84;6135728;23;19913;-84
2023/08/25 13:35:50;;;;;;;;;;;;;;;37.85;26.87;100337.47;6137338;23;20252;-84
2023/08/25 13:38:42;;;;;;;;;;;;;;;37.89;26.80;100332.31;6136228;23;19917;-84
2023/08/25 13:41:34;;;;;;;;;;;;;;;37.97;26.07;100339.03;6138016;23;20252;-85
2023/08/25 13:44:26;;;;;;;;;;;;;;;37.92;26.87;100327.66;6137999;23;19913;-85
2023/08/25 13:47:18;;;;;;;;;;;;;;;37.94;26.79;100323.03;6137999;23;19916;-83
2023/08/25 13:50:08;;;;;;;;;;;;;;;37.87;26.61;100326.38;6117417;23;19913;-84
2023/08/25 13:53:00;;;;;;;;;;;;;;;37.85;25.46;100314.75;6137320;23;19916;-84
2023/08/25 13:55:52;;;;;;;;;;;;;;;37.88;26.58;100312.97;6136399;23;20341;-83
2023/08/25 13:58:43;;;;;;;;;;;;;;;37.99;25.50;100312.97;6137300;23;19917;-83
2023/08/25 14:01:35;;;;;;;;;;;;;;;37.81;26.16;100302.88;6137792;23;19913;-83
2023/08/25 14:04:29;;;;;;;;;;;;;;;37.74;25.69;100302.63;6138846;23;19913;-84
2023/08/25 14:07:21;;;;;;;;;;;;;;;37.77;24.64;100302.34;6138728;23;19913;-85
2023/08/25 14:10:13;;;;;;;;;;;;;;;37.91;24.43;100303.41;6157594;23;19913;-83
2023/08/25 14:13:02;;;;;;;;;;;;;;;37.92;24.21;100300.06;6133319;23;19912;-85
2023/08/25 14:15:51;;;;;;;;;;;;;;;37.85;24.37;100291.25;6136976;23;20363;-84
2023/08/25 14:18:43;;;;;;;;;;;;;;;38.03;25.18;100287.94;6136691;23;20280;-84
2023/08/25 14:21:33;;;;;;;;;;;;;;;37.95;25.23;100284.81;6136650;23;19916;-82
2023/08/25 14:24:25;;;;;;;;;;;;;;;37.92;24.91;100279.41;6157652;23;20333;-84
2023/08/25 14:27:17;;;;;;;;;;;;;;;38.07;23.95;100280.72;6137918;23;19912;-84
2023/08/25 14:30:07;;;;;;;;;;;;;;;38.00;24.47;100281.22;6137221;23;19913;-82
2023/08/25 14:32:58;;;;;;;;;;;;;;;37.94;24.28;100280.44;6137886;23;19913;-82
2023/08/25 14:35:50;;;;;;;;;;;;;;;37.94;24.18;100274.00;6137932;23;19913;-86
2023/08/25 14:38:44;;;;;;;;;;;;;;;37.89;23.37;100269.84;6135804;23;19917;-84
2023/08/25 14:41:36;;;;;;;;;;;;;;;37.77;25.29;100267.50;6137229;23;19912;-86
2023/08/25 14:44:28;;;;;;;;;;;;;;;37.63;27.46;100267.25;6139701;23;20256;-84